sensor_id;sensor_type;location;lat;lon;timestamp;P1;durP1;ratioP1;P2;durP2;ratioP2
5704;SDS011;2877;48.238;11.160;2023-07-08T00:02:10;6.70;;;5.73;;
5704;SDS011;2877;48.238;11.160;2023-07-08T00:04:37;6.87;;;5.53;;
5704;SDS011;2877;48.238;11.160;2023-07-08T00:07:03;11.50;;;5.60;;
5704;SDS011;2877;48.238;11.160;2023-07-08T00:09:29;8.40;;;5.80;;
5704;SDS011;2877;48.238;11.160;2023-07-08T00:11:55;10.07;;;6.27;;
5704;SDS011;2877;48.238;11.160;2023-07-08T00:14:22;8.20;;;6.13;;
5704;SDS011;2877;48.238;11.160;2023-07-08T00:16:48;7.03;;;5.30;;
5704;SDS011;2877;48.238;11.160;2023-07-08T00:19:14;7.27;;;5.70;;
5704;SDS011;2877;48.238;11.160;2023-07-08T00:21:44;8.20;;;5.57;;
5704;SDS011;2877;48.238;11.160;2023-07-08T00:24:09;10.03;;;5.90;;
5704;SDS011;2877;48.238;11.160;2023-07-08T00:26:35;9.37;;;5.97;;
5704;SDS011;2877;48.238;11.160;2023-07-08T00:29:00;11.50;;;6.20;;
5704;SDS011;2877;48.238;11.160;2023-07-08T00:31:26;7.97;;;5.97;;
5704;SDS011;2877;48.238;11.160;2023-07-08T00:33:52;9.40;;;5.73;;
5704;SDS011;2877;48.238;11.160;2023-07-08T00:36:20;7.17;;;5.43;;
5704;SDS011;2877;48.238;11.160;2023-07-08T00:38:47;8.17;;;5.70;;
5704;SDS011;2877;48.238;11.160;2023-07-08T00:41:20;8.07;;;5.90;;
5704;SDS011;2877;48.238;11.160;2023-07-08T00:43:53;8.57;;;5.10;;
5704;SDS011;2877;48.238;11.160;2023-07-08T00:48:53;8.20;;;5.33;;
5704;SDS011;2877;48.238;11.160;2023-07-08T00:51:32;8.07;;;5.70;;
5704;SDS011;2877;48.238;11.160;2023-07-08T00:53:58;8.30;;;4.80;;
5704;SDS011;2877;48.238;11.160;2023-07-08T00:56:34;7.23;;;5.23;;
5704;SDS011;2877;48.238;11.160;2023-07-08T00:59:09;10.70;;;4.97;;
5704;SDS011;2877;48.238;11.160;2023-07-08T01:01:42;8.27;;;5.03;;
5704;SDS011;2877;48.238;11.160;2023-07-08T01:04:11;6.10;;;4.97;;
5704;SDS011;2877;48.238;11.160;2023-07-08T01:06:40;7.43;;;5.33;;
5704;SDS011;2877;48.238;11.160;2023-07-08T01:09:10;6.77;;;5.00;;
5704;SDS011;2877;48.238;11.160;2023-07-08T01:11:37;7.67;;;5.17;;
5704;SDS011;2877;48.238;11.160;2023-07-08T01:14:05;6.40;;;5.33;;
5704;SDS011;2877;48.238;11.160;2023-07-08T01:16:33;7.37;;;5.53;;
5704;SDS011;2877;48.238;11.160;2023-07-08T01:19:02;8.57;;;5.50;;
5704;SDS011;2877;48.238;11.160;2023-07-08T01:21:35;11.77;;;5.97;;
5704;SDS011;2877;48.238;11.160;2023-07-08T01:24:04;9.00;;;5.67;;
5704;SDS011;2877;48.238;11.160;2023-07-08T01:26:33;13.67;;;6.00;;
5704;SDS011;2877;48.238;11.160;2023-07-08T01:29:00;8.47;;;6.00;;
5704;SDS011;2877;48.238;11.160;2023-07-08T01:31:27;7.00;;;5.27;;
5704;SDS011;2877;48.238;11.160;2023-07-08T01:33:53;9.10;;;5.77;;
5704;SDS011;2877;48.238;11.160;2023-07-08T01:36:19;6.63;;;5.30;;
5704;SDS011;2877;48.238;11.160;2023-07-08T01:38:45;14.33;;;5.33;;
5704;SDS011;2877;48.238;11.160;2023-07-08T01:41:12;7.27;;;5.50;;
5704;SDS011;2877;48.238;11.160;2023-07-08T01:43:39;5.53;;;4.43;;
5704;SDS011;2877;48.238;11.160;2023-07-08T01:46:04;7.37;;;5.67;;
5704;SDS011;2877;48.238;11.160;2023-07-08T01:48:39;9.90;;;5.30;;
5704;SDS011;2877;48.238;11.160;2023-07-08T01:51:06;7.73;;;5.20;;
5704;SDS011;2877;48.238;11.160;2023-07-08T01:53:33;9.13;;;5.17;;
5704;SDS011;2877;48.238;11.160;2023-07-08T01:56:00;13.17;;;5.50;;
5704;SDS011;2877;48.238;11.160;2023-07-08T01:58:26;6.50;;;5.17;;
5704;SDS011;2877;48.238;11.160;2023-07-08T02:00:52;8.03;;;6.07;;
5704;SDS011;2877;48.238;11.160;2023-07-08T02:03:19;9.70;;;4.67;;
5704;SDS011;2877;48.238;11.160;2023-07-08T02:05:45;14.93;;;5.47;;
5704;SDS011;2877;48.238;11.160;2023-07-08T02:08:11;6.73;;;4.57;;
5704;SDS011;2877;48.238;11.160;2023-07-08T02:10:37;8.50;;;4.73;;
5704;SDS011;2877;48.238;11.160;2023-07-08T02:13:03;7.87;;;5.80;;
5704;SDS011;2877;48.238;11.160;2023-07-08T02:15:29;8.60;;;6.00;;
5704;SDS011;2877;48.238;11.160;2023-07-08T02:17:55;7.70;;;5.40;;
5704;SDS011;2877;48.238;11.160;2023-07-08T02:20:21;6.63;;;4.77;;
5704;SDS011;2877;48.238;11.160;2023-07-08T02:22:47;21.70;;;5.40;;
5704;SDS011;2877;48.238;11.160;2023-07-08T02:25:13;8.87;;;5.50;;
5704;SDS011;2877;48.238;11.160;2023-07-08T02:27:38;9.93;;;6.00;;
5704;SDS011;2877;48.238;11.160;2023-07-08T02:30:04;6.10;;;5.33;;
5704;SDS011;2877;48.238;11.160;2023-07-08T02:32:31;9.17;;;6.27;;
5704;SDS011;2877;48.238;11.160;2023-07-08T02:34:59;10.87;;;5.50;;
5704;SDS011;2877;48.238;11.160;2023-07-08T02:37:25;7.90;;;5.70;;
5704;SDS011;2877;48.238;11.160;2023-07-08T02:39:50;5.70;;;4.60;;
5704;SDS011;2877;48.238;11.160;2023-07-08T02:42:16;8.20;;;5.50;;
5704;SDS011;2877;48.238;11.160;2023-07-08T02:44:42;9.23;;;5.70;;
5704;SDS011;2877;48.238;11.160;2023-07-08T02:47:07;8.73;;;5.90;;
5704;SDS011;2877;48.238;11.160;2023-07-08T02:49:33;8.33;;;5.60;;
5704;SDS011;2877;48.238;11.160;2023-07-08T02:51:59;10.33;;;6.00;;
5704;SDS011;2877;48.238;11.160;2023-07-08T02:54:25;7.60;;;5.03;;
5704;SDS011;2877;48.238;11.160;2023-07-08T02:56:50;7.67;;;5.63;;
5704;SDS011;2877;48.238;11.160;2023-07-08T02:59:15;5.70;;;4.93;;
5704;SDS011;2877;48.238;11.160;2023-07-08T03:01:41;8.37;;;5.80;;
5704;SDS011;2877;48.238;11.160;2023-07-08T03:04:13;9.00;;;5.77;;
5704;SDS011;2877;48.238;11.160;2023-07-08T03:06:42;9.00;;;6.20;;
5704;SDS011;2877;48.238;11.160;2023-07-08T03:09:09;7.67;;;5.13;;
5704;SDS011;2877;48.238;11.160;2023-07-08T03:11:35;8.17;;;5.70;;
5704;SDS011;2877;48.238;11.160;2023-07-08T03:14:01;8.37;;;5.60;;
5704;SDS011;2877;48.238;11.160;2023-07-08T03:16:27;8.07;;;5.57;;
5704;SDS011;2877;48.238;11.160;2023-07-08T03:18:53;14.83;;;5.60;;
5704;SDS011;2877;48.238;11.160;2023-07-08T03:21:18;8.50;;;5.30;;
5704;SDS011;2877;48.238;11.160;2023-07-08T03:23:44;7.13;;;5.23;;
5704;SDS011;2877;48.238;11.160;2023-07-08T03:26:17;9.90;;;6.77;;
5704;SDS011;2877;48.238;11.160;2023-07-08T03:28:46;6.87;;;5.37;;
5704;SDS011;2877;48.238;11.160;2023-07-08T03:31:12;6.33;;;5.00;;
5704;SDS011;2877;48.238;11.160;2023-07-08T03:33:38;9.77;;;6.27;;
5704;SDS011;2877;48.238;11.160;2023-07-08T03:36:04;7.50;;;5.30;;
5704;SDS011;2877;48.238;11.160;2023-07-08T03:38:36;9.87;;;5.33;;
5704;SDS011;2877;48.238;11.160;2023-07-08T03:41:01;10.47;;;5.63;;
5704;SDS011;2877;48.238;11.160;2023-07-08T03:43:27;12.40;;;5.87;;
5704;SDS011;2877;48.238;11.160;2023-07-08T03:45:52;7.27;;;5.50;;
5704;SDS011;2877;48.238;11.160;2023-07-08T03:48:18;13.60;;;5.40;;
5704;SDS011;2877;48.238;11.160;2023-07-08T03:50:43;6.37;;;5.43;;
5704;SDS011;2877;48.238;11.160;2023-07-08T03:53:09;15.40;;;5.60;;
5704;SDS011;2877;48.238;11.160;2023-07-08T03:55:35;7.80;;;5.20;;
5704;SDS011;2877;48.238;11.160;2023-07-08T03:58:00;7.33;;;5.27;;
5704;SDS011;2877;48.238;11.160;2023-07-08T04:00:26;8.33;;;5.30;;
5704;SDS011;2877;48.238;11.160;2023-07-08T04:02:51;7.37;;;5.00;;
5704;SDS011;2877;48.238;11.160;2023-07-08T04:05:18;8.33;;;5.03;;
5704;SDS011;2877;48.238;11.160;2023-07-08T04:07:45;8.03;;;5.00;;
5704;SDS011;2877;48.238;11.160;2023-07-08T04:10:11;8.17;;;5.40;;
5704;SDS011;2877;48.238;11.160;2023-07-08T04:12:38;7.40;;;5.60;;
5704;SDS011;2877;48.238;11.160;2023-07-08T04:15:04;6.93;;;5.37;;
5704;SDS011;2877;48.238;11.160;2023-07-08T04:17:32;6.23;;;4.83;;
5704;SDS011;2877;48.238;11.160;2023-07-08T04:19:58;6.53;;;4.70;;
5704;SDS011;2877;48.238;11.160;2023-07-08T04:22:31;8.73;;;5.50;;
5704;SDS011;2877;48.238;11.160;2023-07-08T04:24:56;8.80;;;5.70;;
5704;SDS011;2877;48.238;11.160;2023-07-08T04:27:22;8.47;;;5.13;;
5704;SDS011;2877;48.238;11.160;2023-07-08T04:29:47;7.50;;;5.90;;
5704;SDS011;2877;48.238;11.160;2023-07-08T04:32:13;7.93;;;5.40;;
5704;SDS011;2877;48.238;11.160;2023-07-08T04:34:39;8.60;;;5.73;;
5704;SDS011;2877;48.238;11.160;2023-07-08T04:37:04;6.77;;;5.40;;
5704;SDS011;2877;48.238;11.160;2023-07-08T04:39:30;11.80;;;5.27;;
5704;SDS011;2877;48.238;11.160;2023-07-08T04:41:56;8.40;;;6.17;;
5704;SDS011;2877;48.238;11.160;2023-07-08T04:44:22;7.60;;;5.67;;
5704;SDS011;2877;48.238;11.160;2023-07-08T04:46:50;11.43;;;6.00;;
5704;SDS011;2877;48.238;11.160;2023-07-08T04:49:19;6.27;;;5.40;;
5704;SDS011;2877;48.238;11.160;2023-07-08T04:51:45;9.93;;;5.60;;
5704;SDS011;2877;48.238;11.160;2023-07-08T04:54:11;9.83;;;6.00;;
5704;SDS011;2877;48.238;11.160;2023-07-08T04:56:38;8.80;;;6.23;;
5704;SDS011;2877;48.238;11.160;2023-07-08T04:59:07;9.70;;;6.40;;
5704;SDS011;2877;48.238;11.160;2023-07-08T05:01:38;9.33;;;6.60;;
5704;SDS011;2877;48.238;11.160;2023-07-08T05:04:04;11.23;;;6.40;;
5704;SDS011;2877;48.238;11.160;2023-07-08T05:06:31;10.73;;;6.53;;
5704;SDS011;2877;48.238;11.160;2023-07-08T05:08:58;7.87;;;6.23;;
5704;SDS011;2877;48.238;11.160;2023-07-08T05:11:24;10.40;;;6.30;;
5704;SDS011;2877;48.238;11.160;2023-07-08T05:13:50;8.83;;;5.90;;
5704;SDS011;2877;48.238;11.160;2023-07-08T05:16:15;8.63;;;6.30;;
5704;SDS011;2877;48.238;11.160;2023-07-08T05:18:41;8.53;;;6.00;;
5704;SDS011;2877;48.238;11.160;2023-07-08T05:21:06;7.50;;;5.77;;
5704;SDS011;2877;48.238;11.160;2023-07-08T05:23:33;7.17;;;5.90;;
5704;SDS011;2877;48.238;11.160;2023-07-08T05:25:59;11.50;;;7.03;;
5704;SDS011;2877;48.238;11.160;2023-07-08T05:28:25;8.67;;;5.97;;
5704;SDS011;2877;48.238;11.160;2023-07-08T05:30:54;11.07;;;6.70;;
5704;SDS011;2877;48.238;11.160;2023-07-08T05:33:21;8.20;;;6.30;;
5704;SDS011;2877;48.238;11.160;2023-07-08T05:35:50;8.80;;;5.70;;
5704;SDS011;2877;48.238;11.160;2023-07-08T05:38:16;15.70;;;6.53;;
5704;SDS011;2877;48.238;11.160;2023-07-08T05:40:41;8.80;;;5.93;;
5704;SDS011;2877;48.238;11.160;2023-07-08T05:43:07;8.03;;;6.37;;
5704;SDS011;2877;48.238;11.160;2023-07-08T05:45:33;7.97;;;5.43;;
5704;SDS011;2877;48.238;11.160;2023-07-08T05:48:00;8.33;;;6.23;;
5704;SDS011;2877;48.238;11.160;2023-07-08T05:50:26;8.93;;;5.20;;
5704;SDS011;2877;48.238;11.160;2023-07-08T05:52:52;6.53;;;5.17;;
5704;SDS011;2877;48.238;11.160;2023-07-08T05:55:18;10.63;;;6.07;;
5704;SDS011;2877;48.238;11.160;2023-07-08T05:57:45;5.50;;;4.90;;
5704;SDS011;2877;48.238;11.160;2023-07-08T06:00:10;10.30;;;6.43;;
5704;SDS011;2877;48.238;11.160;2023-07-08T06:02:36;7.40;;;5.60;;
5704;SDS011;2877;48.238;11.160;2023-07-08T06:05:02;8.23;;;5.50;;
5704;SDS011;2877;48.238;11.160;2023-07-08T06:07:27;6.43;;;5.30;;
5704;SDS011;2877;48.238;11.160;2023-07-08T06:09:53;8.90;;;5.83;;
5704;SDS011;2877;48.238;11.160;2023-07-08T06:12:21;6.57;;;5.33;;
5704;SDS011;2877;48.238;11.160;2023-07-08T06:14:46;7.87;;;5.30;;
5704;SDS011;2877;48.238;11.160;2023-07-08T06:17:12;6.13;;;5.00;;
5704;SDS011;2877;48.238;11.160;2023-07-08T06:19:38;7.50;;;5.47;;
5704;SDS011;2877;48.238;11.160;2023-07-08T06:22:03;8.67;;;5.00;;
5704;SDS011;2877;48.238;11.160;2023-07-08T06:24:29;5.73;;;4.43;;
5704;SDS011;2877;48.238;11.160;2023-07-08T06:26:55;8.33;;;4.83;;
5704;SDS011;2877;48.238;11.160;2023-07-08T06:29:20;5.87;;;5.27;;
5704;SDS011;2877;48.238;11.160;2023-07-08T06:31:46;8.17;;;5.83;;
5704;SDS011;2877;48.238;11.160;2023-07-08T06:34:11;6.57;;;5.47;;
5704;SDS011;2877;48.238;11.160;2023-07-08T06:36:37;9.10;;;5.10;;
5704;SDS011;2877;48.238;11.160;2023-07-08T06:39:02;7.47;;;5.60;;
5704;SDS011;2877;48.238;11.160;2023-07-08T06:41:31;6.67;;;5.20;;
5704;SDS011;2877;48.238;11.160;2023-07-08T06:43:57;9.40;;;5.50;;
5704;SDS011;2877;48.238;11.160;2023-07-08T06:46:23;7.53;;;5.67;;
5704;SDS011;2877;48.238;11.160;2023-07-08T06:48:49;7.10;;;5.40;;
5704;SDS011;2877;48.238;11.160;2023-07-08T06:51:14;7.23;;;5.40;;
5704;SDS011;2877;48.238;11.160;2023-07-08T06:53:40;12.10;;;6.03;;
5704;SDS011;2877;48.238;11.160;2023-07-08T06:56:05;8.57;;;5.50;;
5704;SDS011;2877;48.238;11.160;2023-07-08T06:58:31;7.43;;;5.63;;
5704;SDS011;2877;48.238;11.160;2023-07-08T07:00:57;9.60;;;6.47;;
5704;SDS011;2877;48.238;11.160;2023-07-08T07:03:23;10.87;;;6.73;;
5704;SDS011;2877;48.238;11.160;2023-07-08T07:05:48;9.57;;;6.60;;
5704;SDS011;2877;48.238;11.160;2023-07-08T07:08:14;8.13;;;6.23;;
5704;SDS011;2877;48.238;11.160;2023-07-08T07:10:39;11.47;;;6.40;;
5704;SDS011;2877;48.238;11.160;2023-07-08T07:13:05;9.90;;;6.50;;
5704;SDS011;2877;48.238;11.160;2023-07-08T07:15:30;13.93;;;6.50;;
5704;SDS011;2877;48.238;11.160;2023-07-08T07:17:57;9.20;;;6.47;;
5704;SDS011;2877;48.238;11.160;2023-07-08T07:20:23;7.90;;;6.10;;
5704;SDS011;2877;48.238;11.160;2023-07-08T07:22:49;18.30;;;7.20;;
5704;SDS011;2877;48.238;11.160;2023-07-08T07:25:16;7.97;;;6.17;;
5704;SDS011;2877;48.238;11.160;2023-07-08T07:27:42;8.20;;;6.00;;
5704;SDS011;2877;48.238;11.160;2023-07-08T07:30:08;9.33;;;6.17;;
5704;SDS011;2877;48.238;11.160;2023-07-08T07:32:37;7.27;;;5.87;;
5704;SDS011;2877;48.238;11.160;2023-07-08T07:35:03;10.27;;;6.80;;
5704;SDS011;2877;48.238;11.160;2023-07-08T07:37:29;14.17;;;7.50;;
5704;SDS011;2877;48.238;11.160;2023-07-08T07:39:55;11.63;;;6.83;;
5704;SDS011;2877;48.238;11.160;2023-07-08T07:42:20;9.97;;;6.47;;
5704;SDS011;2877;48.238;11.160;2023-07-08T07:44:46;9.50;;;6.43;;
5704;SDS011;2877;48.238;11.160;2023-07-08T07:47:12;10.30;;;6.83;;
5704;SDS011;2877;48.238;11.160;2023-07-08T07:49:38;8.80;;;6.53;;
5704;SDS011;2877;48.238;11.160;2023-07-08T07:52:03;9.50;;;6.70;;
5704;SDS011;2877;48.238;11.160;2023-07-08T07:57:30;10.20;;;7.43;;
5704;SDS011;2877;48.238;11.160;2023-07-08T07:59:55;12.97;;;7.00;;
5704;SDS011;2877;48.238;11.160;2023-07-08T08:02:21;11.13;;;6.70;;
5704;SDS011;2877;48.238;11.160;2023-07-08T08:04:47;9.50;;;7.00;;
5704;SDS011;2877;48.238;11.160;2023-07-08T08:07:12;14.60;;;8.47;;
5704;SDS011;2877;48.238;11.160;2023-07-08T08:09:38;13.50;;;8.27;;
5704;SDS011;2877;48.238;11.160;2023-07-08T08:12:04;12.23;;;8.33;;
5704;SDS011;2877;48.238;11.160;2023-07-08T08:14:34;12.57;;;8.17;;
5704;SDS011;2877;48.238;11.160;2023-07-08T08:17:00;9.40;;;6.90;;
5704;SDS011;2877;48.238;11.160;2023-07-08T08:19:27;13.20;;;7.70;;
5704;SDS011;2877;48.238;11.160;2023-07-08T08:21:52;11.97;;;7.60;;
5704;SDS011;2877;48.238;11.160;2023-07-08T08:24:18;12.20;;;8.30;;
5704;SDS011;2877;48.238;11.160;2023-07-08T08:26:43;9.40;;;6.73;;
5704;SDS011;2877;48.238;11.160;2023-07-08T08:29:10;9.63;;;6.70;;
5704;SDS011;2877;48.238;11.160;2023-07-08T08:31:35;11.43;;;6.97;;
5704;SDS011;2877;48.238;11.160;2023-07-08T08:34:01;11.97;;;7.67;;
5704;SDS011;2877;48.238;11.160;2023-07-08T08:36:26;19.40;;;6.53;;
5704;SDS011;2877;48.238;11.160;2023-07-08T08:38:52;11.57;;;7.30;;
5704;SDS011;2877;48.238;11.160;2023-07-08T08:41:24;17.43;;;7.23;;
5704;SDS011;2877;48.238;11.160;2023-07-08T08:43:57;12.90;;;7.03;;
5704;SDS011;2877;48.238;11.160;2023-07-08T08:49:34;8.47;;;6.73;;
5704;SDS011;2877;48.238;11.160;2023-07-08T08:52:04;11.30;;;7.53;;
5704;SDS011;2877;48.238;11.160;2023-07-08T08:54:30;17.10;;;7.90;;
5704;SDS011;2877;48.238;11.160;2023-07-08T08:57:01;10.50;;;7.40;;
5704;SDS011;2877;48.238;11.160;2023-07-08T08:59:46;13.43;;;7.30;;
5704;SDS011;2877;48.238;11.160;2023-07-08T09:05:02;11.53;;;6.77;;
5704;SDS011;2877;48.238;11.160;2023-07-08T09:07:30;10.20;;;7.03;;
5704;SDS011;2877;48.238;11.160;2023-07-08T09:16:07;8.40;;;6.60;;
5704;SDS011;2877;48.238;11.160;2023-07-08T09:19:09;13.70;;;6.63;;
5704;SDS011;2877;48.238;11.160;2023-07-08T09:22:02;10.90;;;7.00;;
5704;SDS011;2877;48.238;11.160;2023-07-08T09:24:46;12.70;;;6.27;;
5704;SDS011;2877;48.238;11.160;2023-07-08T09:27:15;10.40;;;7.00;;
5704;SDS011;2877;48.238;11.160;2023-07-08T09:29:41;12.30;;;7.47;;
5704;SDS011;2877;48.238;11.160;2023-07-08T09:32:17;14.07;;;7.37;;
5704;SDS011;2877;48.238;11.160;2023-07-08T09:34:49;9.87;;;6.60;;
5704;SDS011;2877;48.238;11.160;2023-07-08T09:37:30;10.30;;;6.70;;
5704;SDS011;2877;48.238;11.160;2023-07-08T09:39:56;7.37;;;5.73;;
5704;SDS011;2877;48.238;11.160;2023-07-08T09:42:25;11.07;;;6.27;;
5704;SDS011;2877;48.238;11.160;2023-07-08T09:44:55;8.70;;;5.83;;
5704;SDS011;2877;48.238;11.160;2023-07-08T09:47:27;9.47;;;5.90;;
5704;SDS011;2877;48.238;11.160;2023-07-08T09:49:58;9.83;;;6.20;;
5704;SDS011;2877;48.238;11.160;2023-07-08T09:52:24;7.00;;;5.70;;
5704;SDS011;2877;48.238;11.160;2023-07-08T09:54:54;6.73;;;4.73;;
5704;SDS011;2877;48.238;11.160;2023-07-08T09:57:28;5.80;;;4.90;;
5704;SDS011;2877;48.238;11.160;2023-07-08T09:59:58;10.20;;;5.30;;
5704;SDS011;2877;48.238;11.160;2023-07-08T10:05:19;9.00;;;5.50;;
5704;SDS011;2877;48.238;11.160;2023-07-08T10:07:52;10.13;;;5.10;;
5704;SDS011;2877;48.238;11.160;2023-07-08T10:10:22;8.00;;;5.10;;
5704;SDS011;2877;48.238;11.160;2023-07-08T10:13:01;7.50;;;4.97;;
5704;SDS011;2877;48.238;11.160;2023-07-08T10:15:46;7.70;;;5.07;;
5704;SDS011;2877;48.238;11.160;2023-07-08T10:18:19;7.63;;;4.90;;
5704;SDS011;2877;48.238;11.160;2023-07-08T10:23:34;7.90;;;5.57;;
5704;SDS011;2877;48.238;11.160;2023-07-08T10:26:11;7.40;;;5.03;;
5704;SDS011;2877;48.238;11.160;2023-07-08T10:28:58;8.27;;;4.90;;
5704;SDS011;2877;48.238;11.160;2023-07-08T10:37:07;9.77;;;5.73;;
5704;SDS011;2877;48.238;11.160;2023-07-08T10:39:55;14.53;;;5.97;;
5704;SDS011;2877;48.238;11.160;2023-07-08T10:45:34;6.50;;;5.07;;
5704;SDS011;2877;48.238;11.160;2023-07-08T10:51:11;9.43;;;4.83;;
5704;SDS011;2877;48.238;11.160;2023-07-08T11:03:19;6.23;;;4.80;;
5704;SDS011;2877;48.238;11.160;2023-07-08T11:06:12;10.17;;;5.10;;
5704;SDS011;2877;48.238;11.160;2023-07-08T11:08:48;6.00;;;4.20;;
5704;SDS011;2877;48.238;11.160;2023-07-08T11:13:59;8.20;;;5.03;;
5704;SDS011;2877;48.238;11.160;2023-07-08T11:16:52;8.60;;;4.90;;
5704;SDS011;2877;48.238;11.160;2023-07-08T11:19:48;8.20;;;4.77;;
5704;SDS011;2877;48.238;11.160;2023-07-08T11:22:19;6.73;;;4.77;;
5704;SDS011;2877;48.238;11.160;2023-07-08T11:24:47;7.53;;;4.97;;
5704;SDS011;2877;48.238;11.160;2023-07-08T11:32:36;8.67;;;5.30;;
5704;SDS011;2877;48.238;11.160;2023-07-08T11:35:04;7.13;;;5.37;;
5704;SDS011;2877;48.238;11.160;2023-07-08T11:37:38;6.63;;;5.27;;
5704;SDS011;2877;48.238;11.160;2023-07-08T11:42:37;11.90;;;5.53;;
5704;SDS011;2877;48.238;11.160;2023-07-08T11:45:07;9.87;;;5.60;;
5704;SDS011;2877;48.238;11.160;2023-07-08T11:47:49;7.60;;;5.83;;
5704;SDS011;2877;48.238;11.160;2023-07-08T11:50:22;10.07;;;6.10;;
5704;SDS011;2877;48.238;11.160;2023-07-08T11:55:25;6.50;;;5.50;;
5704;SDS011;2877;48.238;11.160;2023-07-08T11:57:59;11.77;;;5.50;;
5704;SDS011;2877;48.238;11.160;2023-07-08T12:00:26;7.50;;;5.10;;
5704;SDS011;2877;48.238;11.160;2023-07-08T12:02:58;10.77;;;6.30;;
5704;SDS011;2877;48.238;11.160;2023-07-08T12:07:59;9.80;;;6.67;;
5704;SDS011;2877;48.238;11.160;2023-07-08T12:12:51;9.07;;;5.50;;
5704;SDS011;2877;48.238;11.160;2023-07-08T12:15:24;7.60;;;5.47;;
5704;SDS011;2877;48.238;11.160;2023-07-08T12:17:53;10.70;;;5.60;;
5704;SDS011;2877;48.238;11.160;2023-07-08T12:20:31;9.10;;;5.90;;
5704;SDS011;2877;48.238;11.160;2023-07-08T12:22:59;12.40;;;5.60;;
5704;SDS011;2877;48.238;11.160;2023-07-08T12:25:30;9.30;;;5.73;;
5704;SDS011;2877;48.238;11.160;2023-07-08T12:27:57;8.77;;;6.33;;
5704;SDS011;2877;48.238;11.160;2023-07-08T12:30:23;8.30;;;5.50;;
5704;SDS011;2877;48.238;11.160;2023-07-08T12:32:50;12.37;;;5.47;;
5704;SDS011;2877;48.238;11.160;2023-07-08T12:35:23;6.30;;;5.40;;
5704;SDS011;2877;48.238;11.160;2023-07-08T12:37:55;9.70;;;5.80;;
5704;SDS011;2877;48.238;11.160;2023-07-08T12:40:26;13.80;;;6.07;;
5704;SDS011;2877;48.238;11.160;2023-07-08T12:42:53;6.77;;;5.37;;
5704;SDS011;2877;48.238;11.160;2023-07-08T12:45:20;7.10;;;5.80;;
5704;SDS011;2877;48.238;11.160;2023-07-08T12:47:47;8.07;;;5.60;;
5704;SDS011;2877;48.238;11.160;2023-07-08T12:50:13;12.20;;;5.50;;
5704;SDS011;2877;48.238;11.160;2023-07-08T12:52:40;11.13;;;5.63;;
5704;SDS011;2877;48.238;11.160;2023-07-08T12:55:08;6.23;;;5.00;;
5704;SDS011;2877;48.238;11.160;2023-07-08T12:57:35;8.47;;;5.80;;
5704;SDS011;2877;48.238;11.160;2023-07-08T13:00:02;7.90;;;5.70;;
5704;SDS011;2877;48.238;11.160;2023-07-08T13:02:29;7.90;;;5.50;;
5704;SDS011;2877;48.238;11.160;2023-07-08T13:04:58;12.53;;;5.93;;
5704;SDS011;2877;48.238;11.160;2023-07-08T13:07:35;7.40;;;5.83;;
5704;SDS011;2877;48.238;11.160;2023-07-08T13:10:04;9.53;;;5.13;;
5704;SDS011;2877;48.238;11.160;2023-07-08T13:12:32;12.50;;;4.93;;
5704;SDS011;2877;48.238;11.160;2023-07-08T13:15:03;8.93;;;5.50;;
5704;SDS011;2877;48.238;11.160;2023-07-08T13:17:31;7.43;;;5.50;;
5704;SDS011;2877;48.238;11.160;2023-07-08T13:19:58;11.13;;;5.20;;
5704;SDS011;2877;48.238;11.160;2023-07-08T13:22:24;5.77;;;4.97;;
5704;SDS011;2877;48.238;11.160;2023-07-08T13:24:58;7.73;;;4.97;;
5704;SDS011;2877;48.238;11.160;2023-07-08T13:27:28;6.40;;;5.23;;
5704;SDS011;2877;48.238;11.160;2023-07-08T13:29:56;11.40;;;6.20;;
5704;SDS011;2877;48.238;11.160;2023-07-08T13:32:43;6.60;;;5.57;;
5704;SDS011;2877;48.238;11.160;2023-07-08T13:35:22;11.60;;;6.90;;
5704;SDS011;2877;48.238;11.160;2023-07-08T13:38:02;7.47;;;5.77;;
5704;SDS011;2877;48.238;11.160;2023-07-08T13:40:28;8.40;;;5.17;;
5704;SDS011;2877;48.238;11.160;2023-07-08T13:42:55;7.40;;;6.20;;
5704;SDS011;2877;48.238;11.160;2023-07-08T13:45:30;8.10;;;5.33;;
5704;SDS011;2877;48.238;11.160;2023-07-08T13:50:39;7.77;;;5.73;;
5704;SDS011;2877;48.238;11.160;2023-07-08T13:53:23;7.13;;;5.03;;
5704;SDS011;2877;48.238;11.160;2023-07-08T13:55:58;6.90;;;5.60;;
5704;SDS011;2877;48.238;11.160;2023-07-08T13:58:26;10.53;;;5.67;;
5704;SDS011;2877;48.238;11.160;2023-07-08T14:00:54;11.50;;;5.50;;
5704;SDS011;2877;48.238;11.160;2023-07-08T14:03:20;8.80;;;5.57;;
5704;SDS011;2877;48.238;11.160;2023-07-08T14:05:46;6.83;;;5.30;;
5704;SDS011;2877;48.238;11.160;2023-07-08T14:08:15;7.40;;;5.33;;
5704;SDS011;2877;48.238;11.160;2023-07-08T14:10:43;9.77;;;5.47;;
5704;SDS011;2877;48.238;11.160;2023-07-08T14:13:10;8.67;;;5.40;;
5704;SDS011;2877;48.238;11.160;2023-07-08T14:15:36;6.03;;;5.43;;
5704;SDS011;2877;48.238;11.160;2023-07-08T14:18:03;5.87;;;5.27;;
5704;SDS011;2877;48.238;11.160;2023-07-08T14:20:29;5.53;;;4.87;;
5704;SDS011;2877;48.238;11.160;2023-07-08T14:22:55;7.37;;;4.83;;
5704;SDS011;2877;48.238;11.160;2023-07-08T14:25:21;7.03;;;4.60;;
5704;SDS011;2877;48.238;11.160;2023-07-08T14:27:48;10.05;;;4.78;;
5704;SDS011;2877;48.238;11.160;2023-07-08T14:30:14;5.03;;;4.53;;
5704;SDS011;2877;48.238;11.160;2023-07-08T14:32:40;4.78;;;4.35;;
5704;SDS011;2877;48.238;11.160;2023-07-08T14:37:43;5.35;;;4.30;;
5704;SDS011;2877;48.238;11.160;2023-07-08T14:40:54;4.93;;;4.43;;
5704;SDS011;2877;48.238;11.160;2023-07-08T14:43:02;4.93;;;4.53;;
5704;SDS011;2877;48.238;11.160;2023-07-08T14:45:31;4.82;;;4.43;;
5704;SDS011;2877;48.238;11.160;2023-07-08T14:48:07;5.53;;;4.50;;
5704;SDS011;2877;48.238;11.160;2023-07-08T14:50:34;5.10;;;4.22;;
5704;SDS011;2877;48.238;11.160;2023-07-08T14:53:00;9.57;;;4.93;;
5704;SDS011;2877;48.238;11.160;2023-07-08T14:55:26;5.93;;;4.67;;
5704;SDS011;2877;48.238;11.160;2023-07-08T14:57:51;11.53;;;5.13;;
5704;SDS011;2877;48.238;11.160;2023-07-08T15:00:18;9.53;;;4.53;;
5704;SDS011;2877;48.238;11.160;2023-07-08T15:02:45;7.53;;;4.23;;
5704;SDS011;2877;48.238;11.160;2023-07-08T15:05:17;4.18;;;3.80;;
5704;SDS011;2877;48.238;11.160;2023-07-08T15:07:48;6.30;;;3.72;;
5704;SDS011;2877;48.238;11.160;2023-07-08T15:10:14;4.07;;;3.78;;
5704;SDS011;2877;48.238;11.160;2023-07-08T15:12:40;5.05;;;4.03;;
5704;SDS011;2877;48.238;11.160;2023-07-08T15:15:08;4.00;;;3.70;;
5704;SDS011;2877;48.238;11.160;2023-07-08T15:17:40;3.42;;;3.22;;
5704;SDS011;2877;48.238;11.160;2023-07-08T15:20:13;7.90;;;4.00;;
5704;SDS011;2877;48.238;11.160;2023-07-08T15:22:40;4.18;;;3.72;;
5704;SDS011;2877;48.238;11.160;2023-07-08T15:25:06;6.05;;;4.35;;
5704;SDS011;2877;48.238;11.160;2023-07-08T15:27:34;7.90;;;4.80;;
5704;SDS011;2877;48.238;11.160;2023-07-08T15:30:00;5.97;;;5.10;;
5704;SDS011;2877;48.238;11.160;2023-07-08T15:32:25;5.10;;;4.60;;
5704;SDS011;2877;48.238;11.160;2023-07-08T15:34:51;12.03;;;5.40;;
5704;SDS011;2877;48.238;11.160;2023-07-08T15:37:18;5.77;;;4.40;;
5704;SDS011;2877;48.238;11.160;2023-07-08T15:39:44;4.40;;;4.00;;
5704;SDS011;2877;48.238;11.160;2023-07-08T15:42:10;4.87;;;4.37;;
5704;SDS011;2877;48.238;11.160;2023-07-08T15:44:37;5.93;;;4.33;;
5704;SDS011;2877;48.238;11.160;2023-07-08T15:47:03;7.60;;;4.30;;
5704;SDS011;2877;48.238;11.160;2023-07-08T15:49:31;8.23;;;4.50;;
5704;SDS011;2877;48.238;11.160;2023-07-08T15:51:58;6.30;;;4.27;;
5704;SDS011;2877;48.238;11.160;2023-07-08T15:54:24;6.93;;;3.90;;
5704;SDS011;2877;48.238;11.160;2023-07-08T15:56:52;9.80;;;3.87;;
5704;SDS011;2877;48.238;11.160;2023-07-08T15:59:25;6.30;;;3.93;;
5704;SDS011;2877;48.238;11.160;2023-07-08T16:01:53;6.67;;;4.20;;
5704;SDS011;2877;48.238;11.160;2023-07-08T16:04:26;6.00;;;3.70;;
5704;SDS011;2877;48.238;11.160;2023-07-08T16:06:56;5.43;;;3.50;;
5704;SDS011;2877;48.238;11.160;2023-07-08T16:09:22;9.67;;;3.87;;
5704;SDS011;2877;48.238;11.160;2023-07-08T16:11:48;5.70;;;3.67;;
5704;SDS011;2877;48.238;11.160;2023-07-08T16:14:14;5.13;;;3.73;;